Terminal Aerodrome Forecast
Issued by NWS Cleveland, OH

Home | Current Version | Previous Version | Graphics & Text | Print | Product List | Glossary On
Versions: 1 2 3 4 5 6 7 8 9 10 11 12 13 14 15 16 17 18 19 20 21 22 23
757
FTUS41 KCLE 121002 AAA
TAFTOL
TAF AMD
KTOL 121002Z 1210/1306 33015G25KT 1 1/2SM -SN SCT009 OVC015
      TEMPO 1210/1212 3SM -SN BKN009
     FM121200 32015G25KT 6SM -SN OVC025
     FM121700 30018G28KT P6SM OVC035=

USA.gov is the U.S. government's official web portal to all federal, state and local government web resources and services.